• Join FlightAware (Why Join?)
  • Login
  • US Flag 
12:02AM EDT


 

Airport Tracker/Info


-or-


 

Live Flight TrackerFlight Track Log ✈ SWA1169 ✈ 03-May-2013 ✈ KBWI - KMHT

Flight Track Log - Related Links

Times and Time Zones

All times are in EDT time to prevent confusion due to time zone crossing. See the SWA1169 flight status page for this flight to view local times or setup timezone preferences in your user account.

Time Position Orientation Groundspeed Altitude Reporting Facility
EDT Latitude Longitude Course Direction KTS MPH feet Rate Location/Type
12:14PM 39.0978 -76.4636 107° East 212 244 8,100  Level Washington Center
12:16PM 39.1172 -76.3728 75° East 217 250 10,800 2,700 Climbing Washington Center
12:17PM 39.1408 -76.2581 75° East 274 315 13,600 3,120 Climbing Washington Center
12:17PM 39.1622 -76.1322 78° East 311 358 17,000 2,880 Climbing Washington Center
12:18PM 39.1573 -76.5866 284° West  Level FlightAware Approximate
12:19PM 39.1772 -76.0014 82° East 350 403 19,400  Level Washington Center
12:20PM 39.2028 -75.8700 76° East 369 425 21,700 2,220 Climbing Washington Center
12:20PM 39.2781 -75.7711 45° Northeast 364 419 23,900 2,160 Climbing Washington Center
12:21PM 39.3594 -75.6667 45° Northeast 384 442 26,000 1,980 Climbing Washington Center
12:23PM 39.4406 -75.5594 46° Northeast 401 461 27,900 1,620 Climbing Washington Center
12:24PM 39.5281 -75.4464 45° Northeast 413 475 29,400 1,620 Climbing Washington Center
12:24PM 39.6153 -75.3331 45° Northeast 429 494 31,200 1,860 Climbing Washington Center
12:25PM 39.6964 -75.2219 46° Northeast 429 494 33,100 1,860 Climbing Washington Center
12:26PM 39.7600 -75.1267 49° Northeast 458 527 34,600 1,680 Climbing New York Center
12:27PM 39.8436 -75.0075 48° Northeast 465 535 36,200 1,200 Climbing New York Center
12:28PM 39.9228 -74.8933 48° Northeast 449 517 37,000 360 Climbing New York Center
12:29PM 40.0097 -74.7844 44° Northeast 439 505 37,000  Level New York Center
12:30PM 40.0967 -74.6836 42° Northeast 427 491 37,000  Level New York Center
12:31PM 40.1953 -74.5997 33° Northeast 414 476 37,000  Level New York Center
12:32PM 40.2944 -74.4989 38° Northeast 414 476 37,000  Level New York Center
12:33PM 40.3908 -74.4169 33° Northeast 414 476 37,000  Level New York Center
12:34PM 40.4831 -74.3264 37° Northeast 414 476 37,000  Level New York Center
12:35PM 40.5775 -74.2383 35° Northeast 414 476 37,000  Level New York Center
12:37PM 40.7567 -74.0786 34° Northeast 442 509 37,000  Level Boston Center
12:38PM 40.8475 -73.9931 35° Northeast 424 488 37,000 -60 Level Boston Center
12:39PM 40.9403 -73.9044 36° Northeast 414 476 36,900  Descending Boston Center
12:40PM 41.0331 -73.8186 35° Northeast 409 471 37,000  Climbing Boston Center
12:41PM 41.1258 -73.7297 36° Northeast 409 471 37,000  Level Boston Center
12:42PM 41.2206 -73.6433 34° Northeast 409 471 37,000  Level Boston Center
12:43PM 41.3214 -73.5872 23° Northeast 402 463 37,000  Level Boston Center
12:44PM 41.4294 -73.6056 353° North 368 423 37,000  Level Boston Center
12:45PM 41.5458 -73.6244 353° North 375 432 37,000 -240 Level Boston Center
12:46PM 41.6583 -73.6406 354° North 387 445 36,600 -660 Descending Boston Center
12:47PM 41.7667 -73.6564 354° North 387 445 35,700 -960 Descending Boston Center
12:48PM 41.8747 -73.6753 353° North 387 445 34,700 -1,200 Descending Boston Center
12:49PM 41.9850 -73.6858 356° North 387 445 33,400 -1,200 Descending Boston Center
12:50PM 42.0675 -73.5894 41° Northeast 352 405 32,400 -1,200 Descending Boston Center
12:51PM 42.1331 -73.4703 53° Northeast 382 440 31,000 -1,500 Descending Boston Center
12:52PM 42.1986 -73.3619 51° Northeast 382 440 29,400 -1,680 Descending Boston Center
12:53PM 42.2642 -73.2453 53° Northeast 367 422 27,700 -1,680 Descending Boston Center
12:54PM 42.3253 -73.1336 53° Northeast 362 417 26,100 -1,560 Descending Boston Center
12:55PM 42.3822 -73.0331 53° Northeast 375 432 24,600 -1,620 Descending Boston Center
12:56PM 42.4389 -72.9297 53° Northeast 363 418 22,900 -1,680 Descending Boston Center
12:57PM 42.4936 -72.8314 53° Northeast 342 394 21,300 -1,560 Descending Boston Center
12:58PM 42.5375 -72.7247 61° Northeast 328 377 19,800 -1,500 Descending Boston Center
12:59PM 42.5775 -72.6178 63° Northeast 314 361 18,300 -1,320 Descending Boston Center
01:00PM 42.6172 -72.5050 64° Northeast 309 356 17,200 -1,380 Descending Boston Center
01:01PM 42.6547 -72.4006 64° Northeast 309 356 15,600 -1,620 Descending Boston Center
01:02PM 42.6919 -72.2931 65° Northeast 309 356 14,000 -1,620 Descending Boston Center
01:03PM 42.7272 -72.1914 65° Northeast 299 344 12,400 -1,680 Descending Boston Center
01:04PM 42.7667 -72.0808 64° Northeast 294 338 10,700 -1,200 Descending Boston Center
01:05PM 42.7956 -71.9958 65° Northeast 280 322 10,000 -1,380 Descending Boston Center
01:06PM 42.8222 -71.8908 71° East 266 306 8,000 -1,800 Descending Boston Center
01:07PM 42.8258 -71.8031 87° East 266 306 6,500 -1,620 Descending Boston Center
01:08PM 42.8336 -71.6983 84° East 248 285 4,800 -1,440 Descending Boston Center
01:09PM 42.8372 -71.6161 87° East 242 278 3,700 -1,140 Descending Boston Center
01:10PM 42.8553 -71.5394 72° East 201 231 2,600 -1,080 Descending Boston Center
01:11PM 42.8822 -71.5078 41° Northeast 160 184 1,600 -960 Descending Boston Center
01:12PM 42.9153 -71.4678 42° Northeast 139 160 700 8,700 Descending Boston Center
01:13PM 42.9419 -71.4303 46° Northeast 134 154 19,000 9,120 Climbing Boston Center
01:14PM 42.9667 -71.3958 46° Northeast 134 154 19,000  Level Boston Center
01:15PM 42.9933 -71.3586 46° Northeast 134 154 19,000  Level Boston Center
01:16PM 43.0181 -71.3242 46° Northeast 134 154 19,000  Level Boston Center
01:17PM 43.0344 -71.3011 46° Northeast 134 154 19,000  Level Boston Center
01:19PM 42.9374 -71.4297 316° Northwest  Level Estimated
01:26PM 42.9328 -71.4358 316° Northwest  Level Estimated
01:27PM 42.9328 -71.4358 316° Northwest  Level Estimated
01:28PM 42.9328 -71.4358 316° Northwest  Level Estimated
01:29PM 42.9328 -71.4358 316° Northwest  Level Estimated
01:30PM 42.9328 -71.4358 316° Northwest  Level Estimated
01:31PM 42.9328 -71.4358 316° Northwest  Level Estimated